Time;durP1;ratioP1;P1;durP2;ratioP2;P2;SDS_P1;SDS_P2;PMS_P1;PMS_P2;Temp;Humidity;BMP_temperature;BMP_pressure;BME280_temperature;BME280_humidity;BME280_pressure;Samples;Min_cycle;Max_cycle;Signal;HPM_P1;HPM_P2
2022/07/12 00:01:17;;;;;;;0.43;0.43;;;;;;;;;;5042515;28;88256;-52
2022/07/12 00:03:45;;;;;;;1.33;0.70;;;;;;;;;;5042741;28;89058;-52
2022/07/12 00:06:14;;;;;;;0.70;0.47;;;;;;;;;;5042300;28;88009;-52
2022/07/12 00:08:43;;;;;;;0.70;0.40;;;;;;;;;;5042890;28;86902;-52
2022/07/12 00:11:12;;;;;;;0.80;0.50;;;;;;;;;;5042336;28;88063;-52
2022/07/12 00:13:40;;;;;;;0.43;0.43;;;;;;;;;;5042133;28;87917;-52
2022/07/12 00:16:08;;;;;;;1.13;0.50;;;;;;;;;;5042316;28;86780;-51
2022/07/12 00:18:37;;;;;;;0.80;0.60;;;;;;;;;;5042500;28;86908;-52
2022/07/12 00:21:07;;;;;;;0.40;0.40;;;;;;;;;;5041788;28;88963;-52
2022/07/12 00:23:35;;;;;;;0.53;0.50;;;;;;;;;;5042815;27;87966;-52
2022/07/12 00:26:05;;;;;;;1.10;0.70;;;;;;;;;;5042498;28;87084;-52
2022/07/12 00:28:33;;;;;;;0.97;0.53;;;;;;;;;;5042456;28;86897;-52
2022/07/12 00:31:01;;;;;;;0.77;0.70;;;;;;;;;;5041533;28;89645;-52
2022/07/12 00:33:30;;;;;;;0.70;0.70;;;;;;;;;;5042297;28;88737;-52
2022/07/12 00:35:58;;;;;;;1.00;0.70;;;;;;;;;;5041668;28;87000;-52
2022/07/12 00:38:26;;;;;;;1.00;0.90;;;;;;;;;;5046850;27;87228;-53
2022/07/12 00:40:55;;;;;;;1.10;0.93;;;;;;;;;;5061453;27;87149;-52
2022/07/12 00:43:24;;;;;;;1.27;1.00;;;;;;;;;;5062088;27;87728;-52
2022/07/12 00:45:52;;;;;;;1.20;1.10;;;;;;;;;;5062463;27;87005;-52
2022/07/12 00:48:21;;;;;;;1.10;1.00;;;;;;;;;;5062340;27;86308;-52
2022/07/12 00:50:49;;;;;;;1.47;1.07;;;;;;;;;;5058723;27;88304;-53
2022/07/12 00:53:23;;;;;;;2.37;1.03;;;;;;;;;;5062727;27;87983;-52
2022/07/12 00:55:54;;;;;;;1.70;1.30;;;;;;;;;;5061640;27;88013;-50
2022/07/12 00:58:24;;;;;;;1.40;1.17;;;;;;;;;;5062190;27;86964;-51
2022/07/12 01:00:53;;;;;;;1.90;1.07;;;;;;;;;;5060941;27;87123;-52
2022/07/12 01:03:21;;;;;;;1.00;0.93;;;;;;;;;;5061354;27;88115;-51
2022/07/12 01:05:49;;;;;;;1.07;0.87;;;;;;;;;;5067391;27;87051;-51
2022/07/12 01:08:17;;;;;;;1.13;1.03;;;;;;;;;;5069120;27;87121;-50
2022/07/12 01:10:46;;;;;;;1.90;1.07;;;;;;;;;;5062279;27;88116;-51
2022/07/12 01:13:14;;;;;;;1.57;0.90;;;;;;;;;;5080735;27;87743;-50
2022/07/12 01:15:44;;;;;;;0.83;0.80;;;;;;;;;;5064064;27;87019;-49
2022/07/12 01:18:12;;;;;;;0.80;0.80;;;;;;;;;;5082433;27;87148;-49
2022/07/12 01:20:41;;;;;;;0.60;0.53;;;;;;;;;;5058919;27;89118;-49
2022/07/12 01:23:11;;;;;;;0.90;0.80;;;;;;;;;;5064426;27;89947;-50
2022/07/12 01:25:39;;;;;;;0.90;0.70;;;;;;;;;;5070925;27;87020;-51
2022/07/12 01:28:07;;;;;;;1.23;0.93;;;;;;;;;;5067077;27;87056;-49
2022/07/12 01:30:36;;;;;;;0.70;0.70;;;;;;;;;;5060487;27;88971;-49
2022/07/12 01:33:04;;;;;;;1.17;0.60;;;;;;;;;;5061207;27;88893;-50
2022/07/12 01:35:32;;;;;;;2.50;0.90;;;;;;;;;;5061313;27;87046;-49
2022/07/12 01:38:01;;;;;;;1.07;0.70;;;;;;;;;;5062003;27;86296;-49
2022/07/12 01:40:30;;;;;;;0.67;0.67;;;;;;;;;;5060786;27;88156;-49
2022/07/12 01:42:59;;;;;;;1.30;0.80;;;;;;;;;;5059522;27;88095;-49
2022/07/12 01:45:27;;;;;;;1.23;0.93;;;;;;;;;;5060284;27;88043;-50
2022/07/12 01:47:58;;;;;;;1.20;1.00;;;;;;;;;;5063678;27;86998;-49
2022/07/12 01:50:26;;;;;;;1.50;0.93;;;;;;;;;;5063974;27;89250;-49
2022/07/12 01:52:55;;;;;;;0.63;0.63;;;;;;;;;;5064277;27;87840;-49
2022/07/12 01:55:24;;;;;;;0.63;0.63;;;;;;;;;;5064716;27;86831;-49
2022/07/12 01:57:53;;;;;;;0.87;0.83;;;;;;;;;;5064712;27;86728;-49
2022/07/12 02:00:22;;;;;;;1.23;0.70;;;;;;;;;;5063430;27;88117;-49
2022/07/12 02:02:50;;;;;;;3.07;0.80;;;;;;;;;;5061941;27;87856;-49
2022/07/12 02:05:19;;;;;;;1.40;0.73;;;;;;;;;;5065010;27;87106;-50
2022/07/12 02:07:48;;;;;;;0.67;0.67;;;;;;;;;;5064066;27;87069;-49
2022/07/12 02:10:16;;;;;;;0.60;0.60;;;;;;;;;;5063053;27;90274;-49
2022/07/12 02:12:44;;;;;;;1.17;0.83;;;;;;;;;;5044101;28;88860;-50
2022/07/12 02:15:14;;;;;;;0.60;0.60;;;;;;;;;;5052393;27;87004;-49
2022/07/12 02:17:42;;;;;;;0.87;0.80;;;;;;;;;;5063740;27;86984;-49
2022/07/12 02:20:12;;;;;;;0.63;0.60;;;;;;;;;;5064623;27;88336;-51
2022/07/12 02:22:40;;;;;;;0.77;0.77;;;;;;;;;;5062782;27;88027;-49
2022/07/12 02:25:09;;;;;;;0.80;0.70;;;;;;;;;;5064376;27;86727;-49
2022/07/12 02:27:37;;;;;;;4.87;0.80;;;;;;;;;;5063809;27;86246;-51
2022/07/12 02:30:06;;;;;;;0.97;0.70;;;;;;;;;;5063656;27;88228;-50
2022/07/12 02:32:36;;;;;;;1.07;0.67;;;;;;;;;;5043241;27;88032;-50
2022/07/12 02:35:04;;;;;;;1.00;0.80;;;;;;;;;;5043190;28;88370;-50
2022/07/12 02:37:33;;;;;;;1.80;0.73;;;;;;;;;;5061332;27;87042;-50
2022/07/12 02:42:43;;;;;;;0.60;0.60;;;;;;;;;;5062957;27;87790;-50
2022/07/12 02:45:11;;;;;;;0.70;0.70;;;;;;;;;;5063108;27;87014;-49
2022/07/12 02:47:41;;;;;;;1.47;1.03;;;;;;;;;;5063716;27;87098;-50
2022/07/12 02:50:10;;;;;;;1.50;0.97;;;;;;;;;;5063898;27;88046;-50
2022/07/12 02:52:38;;;;;;;3.13;1.73;;;;;;;;;;5064147;27;86608;-50
2022/07/12 02:55:07;;;;;;;2.90;1.60;;;;;;;;;;5064279;27;87117;-50
2022/07/12 02:57:35;;;;;;;2.77;1.67;;;;;;;;;;5063431;27;87111;-50
2022/07/12 03:00:04;;;;;;;4.83;2.57;;;;;;;;;;5057655;27;89631;-50
2022/07/12 03:02:33;;;;;;;4.10;2.57;;;;;;;;;;5063654;27;88874;-50
2022/07/12 03:05:03;;;;;;;3.67;2.10;;;;;;;;;;5064265;27;87055;-50
2022/07/12 03:07:31;;;;;;;3.50;1.90;;;;;;;;;;5061466;27;86986;-50
2022/07/12 03:09:59;;;;;;;4.23;1.90;;;;;;;;;;5043825;27;87234;-50
2022/07/12 03:12:28;;;;;;;3.50;2.37;;;;;;;;;;5064003;27;88823;-50
2022/07/12 03:14:56;;;;;;;7.13;2.83;;;;;;;;;;5063863;27;86765;-50
2022/07/12 03:17:24;;;;;;;3.70;2.30;;;;;;;;;;5063585;27;86240;-50
2022/07/12 03:19:53;;;;;;;4.17;2.53;;;;;;;;;;5063162;27;88274;-50
2022/07/12 03:22:22;;;;;;;5.10;2.63;;;;;;;;;;5061626;27;88896;-50
2022/07/12 03:24:51;;;;;;;4.23;2.50;;;;;;;;;;5063165;27;87879;-50
2022/07/12 03:27:19;;;;;;;4.60;2.40;;;;;;;;;;5063511;27;87093;-50
2022/07/12 03:29:47;;;;;;;5.70;3.00;;;;;;;;;;5062925;27;89260;-50
2022/07/12 03:32:15;;;;;;;3.40;2.47;;;;;;;;;;5062643;27;87026;-52
2022/07/12 03:34:44;;;;;;;4.63;2.53;;;;;;;;;;5063648;27;87063;-50
2022/07/12 03:37:12;;;;;;;5.80;3.50;;;;;;;;;;5063445;27;86992;-49
2022/07/12 03:39:41;;;;;;;2.70;2.40;;;;;;;;;;5062604;27;89548;-50
2022/07/12 03:42:11;;;;;;;4.37;2.63;;;;;;;;;;5063210;27;87976;-50
2022/07/12 03:44:39;;;;;;;6.70;2.90;;;;;;;;;;5063389;27;87000;-50
2022/07/12 03:47:07;;;;;;;3.93;2.60;;;;;;;;;;5063253;27;86959;-50
2022/07/12 03:49:35;;;;;;;3.97;2.57;;;;;;;;;;5061357;27;90285;-50
2022/07/12 03:52:04;;;;;;;7.70;3.30;;;;;;;;;;5062319;27;88730;-50
2022/07/12 03:54:32;;;;;;;5.90;3.10;;;;;;;;;;5063289;27;86881;-50
2022/07/12 03:57:14;;;;;;;5.10;3.27;;;;;;;;;;5063300;27;86853;-50
2022/07/12 03:59:43;;;;;;;5.27;3.03;;;;;;;;;;5062357;27;88436;-50
2022/07/12 04:02:11;;;;;;;4.30;2.73;;;;;;;;;;5062786;27;87934;-50
2022/07/12 04:04:39;;;;;;;4.23;2.60;;;;;;;;;;5062964;27;86996;-49
2022/07/12 04:07:08;;;;;;;5.37;2.20;;;;;;;;;;5063379;27;86286;-50
2022/07/12 04:09:36;;;;;;;5.30;2.60;;;;;;;;;;5061974;27;88072;-50
2022/07/12 04:12:06;;;;;;;4.07;2.50;;;;;;;;;;5062716;27;87762;-50
2022/07/12 04:14:35;;;;;;;4.10;2.60;;;;;;;;;;5062266;27;87796;-50
2022/07/12 04:17:03;;;;;;;3.43;2.53;;;;;;;;;;5062282;27;87017;-50
2022/07/12 04:19:31;;;;;;;3.00;2.30;;;;;;;;;;5061999;27;88012;-50
2022/07/12 04:22:00;;;;;;;5.30;2.30;;;;;;;;;;5061962;27;87989;-50
2022/07/12 04:24:28;;;;;;;3.80;1.80;;;;;;;;;;5062204;27;86903;-49
2022/07/12 04:26:56;;;;;;;3.40;1.77;;;;;;;;;;5062857;27;86931;-50
2022/07/12 04:29:26;;;;;;;2.60;1.87;;;;;;;;;;5062005;27;89284;-50
2022/07/12 04:31:54;;;;;;;3.77;1.80;;;;;;;;;;5061853;27;87839;-50
2022/07/12 04:34:22;;;;;;;3.43;2.23;;;;;;;;;;5061807;27;87066;-50
2022/07/12 04:36:51;;;;;;;2.13;1.57;;;;;;;;;;5062446;27;87044;-50
2022/07/12 04:39:19;;;;;;;1.90;1.70;;;;;;;;;;5060723;27;89131;-50
2022/07/12 04:41:47;;;;;;;2.83;1.90;;;;;;;;;;5062059;27;88751;-50
2022/07/12 04:44:16;;;;;;;1.53;1.43;;;;;;;;;;5061958;27;87749;-50
2022/07/12 04:46:45;;;;;;;2.60;1.10;;;;;;;;;;5042016;28;87067;-50
2022/07/12 04:49:14;;;;;;;3.30;1.60;;;;;;;;;;5051743;27;87765;-50
2022/07/12 04:51:42;;;;;;;2.43;1.50;;;;;;;;;;5062010;27;87020;-51
2022/07/12 04:54:10;;;;;;;2.00;1.40;;;;;;;;;;5062669;27;87033;-50
2022/07/12 04:56:39;;;;;;;1.20;1.10;;;;;;;;;;5061678;27;86235;-51
2022/07/12 04:59:07;;;;;;;2.57;1.40;;;;;;;;;;5061386;27;88258;-50
2022/07/12 05:01:35;;;;;;;1.23;1.10;;;;;;;;;;5061628;27;87939;-50
2022/07/12 05:04:05;;;;;;;1.30;0.97;;;;;;;;;;5061532;27;88063;-50
2022/07/12 05:06:33;;;;;;;1.63;1.00;;;;;;;;;;5062030;27;86927;-50
2022/07/12 05:09:02;;;;;;;1.27;1.10;;;;;;;;;;5061610;27;89080;-50
2022/07/12 05:11:30;;;;;;;2.17;1.33;;;;;;;;;;5061754;27;87796;-50
2022/07/12 05:13:58;;;;;;;1.27;1.10;;;;;;;;;;5061771;27;87022;-49
2022/07/12 05:16:27;;;;;;;1.17;0.90;;;;;;;;;;5060831;27;87031;-50
2022/07/12 05:18:55;;;;;;;1.80;1.60;;;;;;;;;;5061458;27;88734;-50
2022/07/12 05:21:25;;;;;;;3.97;1.17;;;;;;;;;;5061215;27;87945;-50
2022/07/12 05:23:53;;;;;;;2.13;1.00;;;;;;;;;;5061675;27;87037;-50
2022/07/12 05:26:22;;;;;;;0.80;0.80;;;;;;;;;;5061411;27;87961;-50
2022/07/12 05:28:50;;;;;;;0.97;0.87;;;;;;;;;;5060297;27;89112;-50
2022/07/12 05:31:18;;;;;;;0.60;0.60;;;;;;;;;;5061157;27;88684;-51
2022/07/12 05:33:47;;;;;;;1.13;0.90;;;;;;;;;;5061597;27;87033;-50
2022/07/12 05:36:15;;;;;;;0.83;0.83;;;;;;;;;;5061286;27;87096;-49
2022/07/12 05:38:45;;;;;;;1.37;0.87;;;;;;;;;;5061009;27;88098;-50
2022/07/12 05:41:13;;;;;;;0.97;0.90;;;;;;;;;;5060933;27;88788;-50
2022/07/12 05:43:41;;;;;;;2.63;0.80;;;;;;;;;;5061734;27;86915;-49
2022/07/12 05:46:10;;;;;;;1.50;1.10;;;;;;;;;;5062373;27;86259;-50
2022/07/12 05:48:38;;;;;;;0.97;0.77;;;;;;;;;;5060831;27;89029;-49
2022/07/12 05:53:53;;;;;;;0.70;0.67;;;;;;;;;;5061413;27;87994;-50
2022/07/12 05:56:22;;;;;;;1.30;0.90;;;;;;;;;;5061199;27;86995;-50
2022/07/12 05:58:51;;;;;;;0.67;0.60;;;;;;;;;;5061020;27;88048;-50
2022/07/12 06:01:19;;;;;;;1.20;1.07;;;;;;;;;;5060699;27;88986;-51
2022/07/12 06:03:47;;;;;;;2.63;1.27;;;;;;;;;;5060557;27;87087;-50
2022/07/12 06:06:16;;;;;;;1.80;1.57;;;;;;;;;;5061391;27;87001;-50
2022/07/12 06:08:44;;;;;;;2.87;1.40;;;;;;;;;;5061096;27;89089;-50
2022/07/12 06:11:14;;;;;;;2.07;1.80;;;;;;;;;;5060658;27;88980;-50
2022/07/12 06:13:42;;;;;;;3.93;2.20;;;;;;;;;;5061564;27;86962;-48
2022/07/12 06:16:11;;;;;;;3.43;2.07;;;;;;;;;;5060723;27;86972;-50
2022/07/12 06:18:39;;;;;;;2.80;2.23;;;;;;;;;;5059701;27;89037;-50
2022/07/12 06:21:08;;;;;;;4.50;2.40;;;;;;;;;;5060592;27;88678;-51
2022/07/12 06:23:36;;;;;;;2.43;2.07;;;;;;;;;;5060442;27;87093;-50
2022/07/12 06:26:04;;;;;;;4.10;2.43;;;;;;;;;;5060176;27;87068;-50
2022/07/12 06:28:34;;;;;;;2.33;1.87;;;;;;;;;;5071650;27;89225;-50
2022/07/12 06:31:03;;;;;;;3.27;2.10;;;;;;;;;;5058077;27;87044;-50
2022/07/12 06:33:32;;;;;;;3.37;2.43;;;;;;;;;;5057844;27;86970;-50
2022/07/12 06:36:00;;;;;;;2.97;2.33;;;;;;;;;;5066095;27;86203;-50
2022/07/12 06:38:28;;;;;;;2.70;2.17;;;;;;;;;;5084751;27;89289;-51
2022/07/12 06:40:57;;;;;;;5.10;2.00;;;;;;;;;;5074362;27;89054;-51
2022/07/12 06:43:25;;;;;;;2.37;2.17;;;;;;;;;;5061791;27;87961;-50
2022/07/12 06:45:55;;;;;;;5.13;1.50;;;;;;;;;;5084254;27;87075;-51
2022/07/12 06:48:24;;;;;;;3.00;1.77;;;;;;;;;;5080337;27;89248;-51
2022/07/12 06:50:52;;;;;;;3.07;1.93;;;;;;;;;;5063289;27;87982;-50
2022/07/12 06:53:21;;;;;;;3.67;1.70;;;;;;;;;;5062772;27;87156;-50
2022/07/12 06:55:50;;;;;;;4.77;1.50;;;;;;;;;;5062655;27;87112;-49
2022/07/12 06:58:18;;;;;;;2.00;1.50;;;;;;;;;;5063775;27;88223;-51
2022/07/12 07:00:46;;;;;;;1.80;1.13;;;;;;;;;;5062360;27;87938;-50
2022/07/12 07:03:16;;;;;;;4.27;1.57;;;;;;;;;;5063271;27;87042;-51
2022/07/12 07:05:44;;;;;;;3.63;1.30;;;;;;;;;;5064364;27;86926;-51
2022/07/12 07:08:13;;;;;;;1.70;1.20;;;;;;;;;;5061686;27;89362;-51
2022/07/12 07:10:41;;;;;;;3.50;1.10;;;;;;;;;;5057845;27;88851;-52
2022/07/12 07:13:10;;;;;;;1.80;1.30;;;;;;;;;;5057029;27;88394;-51
2022/07/12 07:15:40;;;;;;;1.33;1.17;;;;;;;;;;5059132;27;88443;-52
2022/07/12 07:18:09;;;;;;;2.03;1.30;;;;;;;;;;5057915;27;88871;-52
2022/07/12 07:20:40;;;;;;;1.70;1.30;;;;;;;;;;5062546;27;89097;-51
2022/07/12 07:23:10;;;;;;;1.40;1.10;;;;;;;;;;5063679;27;87061;-52
2022/07/12 07:25:38;;;;;;;1.77;1.30;;;;;;;;;;5073834;27;86188;-52
2022/07/12 07:28:06;;;;;;;1.00;0.90;;;;;;;;;;5083974;27;87073;-51
2022/07/12 07:30:53;;;;;;;1.30;1.13;;;;;;;;;;5083557;27;87888;-49
2022/07/12 07:33:21;;;;;;;1.80;1.10;;;;;;;;;;5083177;27;88445;-50
2022/07/12 07:35:51;;;;;;;1.50;1.40;;;;;;;;;;5082971;27;86950;-51
2022/07/12 07:38:20;;;;;;;1.70;1.23;;;;;;;;;;5069193;27;88263;-51
2022/07/12 07:40:48;;;;;;;1.20;1.00;;;;;;;;;;5063333;27;87875;-51
2022/07/12 07:43:16;;;;;;;1.30;1.10;;;;;;;;;;5063543;27;86847;-51
2022/07/12 07:45:45;;;;;;;1.20;1.07;;;;;;;;;;5062141;27;86933;-52
2022/07/12 07:48:13;;;;;;;4.13;0.93;;;;;;;;;;5063266;27;90266;-51
2022/07/12 07:50:53;;;;;;;1.87;0.90;;;;;;;;;;5063343;27;87959;-51
2022/07/12 07:53:22;;;;;;;1.27;1.17;;;;;;;;;;5063749;27;87068;-51
2022/07/12 07:55:50;;;;;;;1.40;0.80;;;;;;;;;;5062476;27;86970;-50
2022/07/12 07:58:20;;;;;;;1.60;0.93;;;;;;;;;;5062326;27;89075;-51
2022/07/12 08:00:49;;;;;;;2.03;1.13;;;;;;;;;;5062188;27;88707;-51
2022/07/12 08:03:17;;;;;;;1.00;0.70;;;;;;;;;;5061604;27;87022;-51
2022/07/12 08:05:45;;;;;;;4.97;0.93;;;;;;;;;;5062844;27;87012;-51
2022/07/12 08:08:15;;;;;;;1.00;0.80;;;;;;;;;;5062908;27;88188;-51
2022/07/12 08:10:43;;;;;;;1.10;0.90;;;;;;;;;;5061959;27;87017;-51
2022/07/12 08:13:12;;;;;;;1.10;0.70;;;;;;;;;;5063169;27;87116;-51
2022/07/12 08:15:40;;;;;;;1.73;0.97;;;;;;;;;;5083738;27;86212;-52
2022/07/12 08:18:08;;;;;;;0.87;0.87;;;;;;;;;;5081159;27;87933;-51
2022/07/12 08:20:37;;;;;;;1.83;0.97;;;;;;;;;;5062449;27;89102;-51
2022/07/12 08:23:17;;;;;;;1.87;1.00;;;;;;;;;;5062776;27;87797;-51
2022/07/12 08:25:45;;;;;;;0.80;0.80;;;;;;;;;;5061826;27;87151;-51
2022/07/12 08:28:13;;;;;;;0.80;0.80;;;;;;;;;;5062269;27;88124;-51
2022/07/12 08:30:42;;;;;;;3.13;0.90;;;;;;;;;;5062002;27;87865;-51
2022/07/12 08:33:14;;;;;;;1.30;1.00;;;;;;;;;;5062337;27;86766;-51
2022/07/12 08:35:42;;;;;;;0.83;0.80;;;;;;;;;;5056245;27;87594;-51
2022/07/12 08:38:11;;;;;;;1.63;1.10;;;;;;;;;;5042002;28;89126;-51
2022/07/12 08:40:41;;;;;;;1.20;0.97;;;;;;;;;;5042281;28;88330;-52
2022/07/12 08:43:10;;;;;;;1.57;0.90;;;;;;;;;;5049887;27;87091;-51
2022/07/12 08:45:40;;;;;;;1.00;0.90;;;;;;;;;;5062477;27;86911;-52
2022/07/12 08:48:08;;;;;;;1.67;1.10;;;;;;;;;;5062113;27;90126;-51
2022/07/12 08:50:37;;;;;;;0.83;0.80;;;;;;;;;;5062307;27;89924;-51
2022/07/12 08:53:11;;;;;;;1.20;1.10;;;;;;;;;;5062328;27;86905;-52
2022/07/12 08:55:41;;;;;;;0.90;0.90;;;;;;;;;;5061445;27;87186;-51
2022/07/12 08:58:16;;;;;;;1.67;1.40;;;;;;;;;;5061887;27;89230;-51
2022/07/12 09:00:44;;;;;;;1.17;0.90;;;;;;;;;;5061707;27;87668;-51
2022/07/12 09:03:17;;;;;;;1.03;0.97;;;;;;;;;;5061877;27;86934;-51
2022/07/12 09:05:49;;;;;;;1.07;0.90;;;;;;;;;;5061472;27;86282;-51
2022/07/12 09:08:17;;;;;;;1.40;1.00;;;;;;;;;;5064926;27;89185;-54
2022/07/12 09:11:01;;;;;;;1.73;1.00;;;;;;;;;;5067831;27;88784;-51
2022/07/12 09:13:48;;;;;;;0.80;0.53;;;;;;;;;;5073476;27;88357;-53
2022/07/12 09:16:17;;;;;;;1.20;0.87;;;;;;;;;;5078025;27;87382;-54
2022/07/12 09:18:46;;;;;;;1.03;0.70;;;;;;;;;;5059386;27;88057;-53
2022/07/12 09:21:26;;;;;;;1.27;0.93;;;;;;;;;;5060599;27;88957;-53
2022/07/12 09:23:56;;;;;;;0.83;0.63;;;;;;;;;;5062076;27;86910;-54
2022/07/12 09:26:26;;;;;;;4.10;1.00;;;;;;;;;;5069973;27;87047;-54
2022/07/12 09:28:54;;;;;;;0.80;0.70;;;;;;;;;;5061883;27;88221;-54
2022/07/12 09:31:22;;;;;;;3.30;0.83;;;;;;;;;;5061310;27;87551;-54
2022/07/12 09:36:56;;;;;;;0.97;0.80;;;;;;;;;;5062097;27;87038;-53
2022/07/12 09:39:25;;;;;;;1.67;0.80;;;;;;;;;;5060842;27;89293;-55
2022/07/12 09:41:57;;;;;;;1.23;0.80;;;;;;;;;;5060238;27;88883;-54
2022/07/12 09:44:26;;;;;;;1.03;0.83;;;;;;;;;;5060510;27;87086;-53
2022/07/12 09:46:54;;;;;;;2.50;0.90;;;;;;;;;;5061297;27;87094;-54
2022/07/12 09:49:22;;;;;;;1.50;0.83;;;;;;;;;;5060970;27;86936;-53
2022/07/12 09:51:53;;;;;;;1.17;0.70;;;;;;;;;;5061214;27;87046;-53
2022/07/12 09:54:23;;;;;;;0.97;0.73;;;;;;;;;;5059519;27;87008;-53
2022/07/12 09:57:01;;;;;;;0.80;0.60;;;;;;;;;;5061404;27;86232;-54
2022/07/12 09:59:30;;;;;;;0.80;0.80;;;;;;;;;;5061134;27;88212;-54
2022/07/12 10:02:00;;;;;;;1.03;0.70;;;;;;;;;;5060753;27;87942;-53
2022/07/12 10:04:30;;;;;;;0.73;0.63;;;;;;;;;;5061120;27;88421;-54
2022/07/12 10:06:58;;;;;;;1.17;1.07;;;;;;;;;;5061537;27;86981;-54
2022/07/12 10:09:27;;;;;;;0.80;0.80;;;;;;;;;;5065135;27;89312;-54
2022/07/12 10:11:55;;;;;;;0.60;0.60;;;;;;;;;;5065003;27;86845;-53
2022/07/12 10:14:29;;;;;;;1.00;0.60;;;;;;;;;;5065374;27;86995;-53
2022/07/12 10:16:57;;;;;;;0.73;0.73;;;;;;;;;;5065074;27;86864;-53
2022/07/12 10:19:26;;;;;;;1.53;1.20;;;;;;;;;;5064815;27;88050;-53
2022/07/12 10:21:55;;;;;;;1.27;0.67;;;;;;;;;;5065129;27;87798;-53
2022/07/12 10:24:42;;;;;;;2.27;0.90;;;;;;;;;;5064382;27;87112;-53
2022/07/12 10:27:28;;;;;;;1.97;0.80;;;;;;;;;;5063899;27;87037;-53
2022/07/12 10:30:14;;;;;;;1.77;0.90;;;;;;;;;;5063382;27;89016;-54
2022/07/12 10:32:43;;;;;;;3.90;0.97;;;;;;;;;;5064419;27;89802;-54
2022/07/12 10:35:13;;;;;;;1.40;1.30;;;;;;;;;;5064743;27;87044;-54
2022/07/12 10:37:41;;;;;;;1.23;0.80;;;;;;;;;;5063743;27;87041;-53
2022/07/12 10:40:13;;;;;;;1.23;0.60;;;;;;;;;;5064445;27;88116;-53
2022/07/12 10:42:41;;;;;;;3.00;0.70;;;;;;;;;;5064273;27;86714;-53
2022/07/12 10:45:15;;;;;;;0.97;0.67;;;;;;;;;;5064755;27;86853;-54
2022/07/12 10:47:55;;;;;;;1.30;1.00;;;;;;;;;;5064674;27;86292;-54
2022/07/12 10:50:38;;;;;;;1.20;0.80;;;;;;;;;;5064544;27;88301;-53
2022/07/12 10:53:21;;;;;;;1.20;0.80;;;;;;;;;;5063191;27;87832;-53
2022/07/12 10:56:14;;;;;;;1.00;1.00;;;;;;;;;;5062901;27;87985;-53
2022/07/12 10:58:43;;;;;;;1.47;1.00;;;;;;;;;;5063797;27;87019;-53
2022/07/12 11:01:13;;;;;;;2.50;1.00;;;;;;;;;;5063449;27;88213;-53
2022/07/12 11:03:42;;;;;;;0.70;0.70;;;;;;;;;;5063938;27;87823;-53
2022/07/12 11:06:11;;;;;;;0.77;0.70;;;;;;;;;;5064294;27;87047;-53
2022/07/12 11:08:53;;;;;;;2.07;1.20;;;;;;;;;;5063904;27;87031;-53
2022/07/12 11:11:22;;;;;;;1.10;0.73;;;;;;;;;;5064363;27;88068;-54
2022/07/12 11:13:50;;;;;;;0.73;0.73;;;;;;;;;;5063783;27;86598;-53
2022/07/12 11:16:20;;;;;;;1.73;1.03;;;;;;;;;;5063765;27;87039;-53
2022/07/12 11:18:49;;;;;;;1.10;1.00;;;;;;;;;;5063876;27;87010;-53
2022/07/12 11:21:17;;;;;;;1.27;1.10;;;;;;;;;;5063036;27;90071;-54
2022/07/12 11:23:45;;;;;;;1.00;0.80;;;;;;;;;;5063520;27;88977;-54
2022/07/12 11:26:14;;;;;;;1.13;1.03;;;;;;;;;;5063786;27;88110;-53
2022/07/12 11:28:43;;;;;;;1.60;1.17;;;;;;;;;;5064132;27;86939;-54
2022/07/12 11:31:11;;;;;;;1.30;1.10;;;;;;;;;;5063323;27;86937;-54
2022/07/12 11:33:41;;;;;;;0.70;0.70;;;;;;;;;;5063348;27;86924;-54
2022/07/12 11:36:10;;;;;;;1.13;0.93;;;;;;;;;;5063941;27;87027;-54
2022/07/12 11:38:39;;;;;;;1.27;1.07;;;;;;;;;;5064097;27;86289;-54
2022/07/12 11:41:12;;;;;;;1.37;0.87;;;;;;;;;;5063208;27;89005;-54
2022/07/12 11:43:40;;;;;;;0.80;0.80;;;;;;;;;;5062807;27;89008;-54
2022/07/12 11:46:09;;;;;;;1.20;1.10;;;;;;;;;;5063216;27;88050;-54
2022/07/12 11:48:38;;;;;;;1.50;1.10;;;;;;;;;;5063422;27;87067;-53
2022/07/12 11:51:08;;;;;;;1.60;1.20;;;;;;;;;;5063219;27;89171;-54
2022/07/12 11:53:37;;;;;;;1.10;0.70;;;;;;;;;;5062415;27;89115;-54
2022/07/12 11:56:05;;;;;;;0.73;0.73;;;;;;;;;;5063003;27;87039;-54
2022/07/12 11:58:37;;;;;;;0.80;0.80;;;;;;;;;;5062737;27;87080;-53
2022/07/12 12:01:06;;;;;;;2.03;0.80;;;;;;;;;;5062526;27;88035;-54
2022/07/12 12:03:43;;;;;;;1.80;0.90;;;;;;;;;;5063081;27;88498;-54
2022/07/12 12:06:13;;;;;;;1.20;0.90;;;;;;;;;;5062807;27;87025;-54
2022/07/12 12:08:41;;;;;;;2.13;0.93;;;;;;;;;;5063328;27;86988;-54
2022/07/12 12:11:09;;;;;;;0.97;0.87;;;;;;;;;;5060565;27;89189;-54
2022/07/12 12:13:38;;;;;;;1.10;0.80;;;;;;;;;;5062485;27;88881;-52
2022/07/12 12:16:06;;;;;;;0.60;0.60;;;;;;;;;;5062845;27;87199;-54
2022/07/12 12:18:35;;;;;;;0.93;0.80;;;;;;;;;;5062862;27;86862;-54
2022/07/12 12:21:04;;;;;;;1.03;0.73;;;;;;;;;;5062585;27;88110;-54
2022/07/12 12:23:34;;;;;;;0.60;0.60;;;;;;;;;;5062066;27;87402;-54
2022/07/12 12:26:12;;;;;;;0.83;0.83;;;;;;;;;;5062914;27;87103;-54
2022/07/12 12:28:47;;;;;;;0.60;0.50;;;;;;;;;;5062704;27;86351;-54
2022/07/12 12:31:15;;;;;;;0.57;0.57;;;;;;;;;;5061785;27;87877;-54
2022/07/12 12:33:44;;;;;;;1.57;0.60;;;;;;;;;;5062142;27;88329;-54
2022/07/12 12:36:13;;;;;;;1.40;0.80;;;;;;;;;;5062144;27;87976;-54
2022/07/12 12:38:43;;;;;;;1.63;0.80;;;;;;;;;;5062599;27;86897;-54
2022/07/12 12:41:12;;;;;;;0.63;0.63;;;;;;;;;;5062364;27;89233;-54
2022/07/12 12:43:40;;;;;;;0.70;0.70;;;;;;;;;;5062380;27;87937;-54
2022/07/12 12:46:09;;;;;;;0.93;0.63;;;;;;;;;;5062251;27;86845;-54
2022/07/12 12:48:37;;;;;;;0.67;0.67;;;;;;;;;;5062260;27;86855;-54
2022/07/12 12:51:06;;;;;;;0.77;0.70;;;;;;;;;;5062312;27;89176;-54
2022/07/12 12:53:36;;;;;;;0.87;0.60;;;;;;;;;;5062974;27;87957;-54
2022/07/12 12:56:08;;;;;;;0.67;0.60;;;;;;;;;;5062297;27;86840;-54
2022/07/12 12:58:36;;;;;;;0.40;0.40;;;;;;;;;;5061791;27;87019;-54
2022/07/12 13:01:05;;;;;;;3.10;0.73;;;;;;;;;;5060887;27;89054;-54
2022/07/12 13:03:34;;;;;;;0.40;0.40;;;;;;;;;;5062244;27;89803;-54
2022/07/12 13:06:04;;;;;;;0.70;0.50;;;;;;;;;;5062191;27;86945;-54
2022/07/12 13:08:33;;;;;;;0.73;0.60;;;;;;;;;;5062202;27;87010;-54
2022/07/12 13:11:22;;;;;;;0.40;0.40;;;;;;;;;;5062039;27;89329;-54
2022/07/12 13:13:53;;;;;;;1.20;0.60;;;;;;;;;;5061727;27;87914;-54
2022/07/12 13:16:22;;;;;;;0.73;0.57;;;;;;;;;;5061987;27;87935;-54
2022/07/12 13:18:50;;;;;;;2.07;0.63;;;;;;;;;;5061553;27;86304;-53
2022/07/12 13:21:18;;;;;;;0.50;0.50;;;;;;;;;;5061783;27;88038;-53
2022/07/12 13:23:47;;;;;;;0.67;0.60;;;;;;;;;;5061716;27;87976;-53
2022/07/12 13:26:15;;;;;;;1.43;0.83;;;;;;;;;;5061731;27;87919;-54
2022/07/12 13:28:43;;;;;;;1.00;0.90;;;;;;;;;;5061293;27;87201;-54
2022/07/12 13:31:13;;;;;;;0.93;0.70;;;;;;;;;;5061279;27;88259;-54
2022/07/12 13:33:42;;;;;;;1.00;0.70;;;;;;;;;;5061537;27;88927;-54
2022/07/12 13:36:10;;;;;;;0.60;0.50;;;;;;;;;;5061192;27;86964;-54
2022/07/12 13:38:39;;;;;;;0.47;0.47;;;;;;;;;;5061407;27;87036;-53
2022/07/12 13:41:07;;;;;;;0.60;0.60;;;;;;;;;;5061378;27;89221;-54
2022/07/12 13:43:36;;;;;;;0.60;0.60;;;;;;;;;;5063446;27;86811;-54
2022/07/12 13:46:04;;;;;;;0.77;0.50;;;;;;;;;;5065006;27;87011;-55
2022/07/12 13:48:34;;;;;;;1.97;0.87;;;;;;;;;;5065172;27;87026;-54
2022/07/12 13:51:03;;;;;;;1.03;0.97;;;;;;;;;;5064405;27;89038;-55
2022/07/12 13:53:51;;;;;;;0.87;0.73;;;;;;;;;;5064458;27;88581;-54
2022/07/12 13:56:19;;;;;;;0.70;0.67;;;;;;;;;;5063781;27;87519;-54
2022/07/12 13:58:48;;;;;;;0.87;0.67;;;;;;;;;;5064240;27;87037;-53
2022/07/12 14:01:16;;;;;;;0.97;0.73;;;;;;;;;;5063159;27;89122;-53
2022/07/12 14:03:46;;;;;;;1.47;0.83;;;;;;;;;;5065300;27;87020;-54
2022/07/12 14:06:14;;;;;;;1.07;0.97;;;;;;;;;;5065052;27;86913;-54
2022/07/12 14:08:42;;;;;;;1.57;0.90;;;;;;;;;;5065171;27;86219;-54
2022/07/12 14:11:11;;;;;;;0.83;0.70;;;;;;;;;;5064635;27;88130;-54
2022/07/12 14:13:39;;;;;;;1.30;0.93;;;;;;;;;;5064255;27;87816;-54
2022/07/12 14:16:08;;;;;;;1.87;0.70;;;;;;;;;;5064327;27;88711;-53
2022/07/12 14:18:36;;;;;;;0.83;0.70;;;;;;;;;;5064956;27;87022;-54
2022/07/12 14:21:06;;;;;;;1.20;1.10;;;;;;;;;;5063209;27;89283;-54
2022/07/12 14:23:34;;;;;;;1.57;1.00;;;;;;;;;;5064212;27;87884;-54
2022/07/12 14:26:03;;;;;;;1.37;1.00;;;;;;;;;;5064510;27;86938;-54
2022/07/12 14:28:31;;;;;;;0.77;0.77;;;;;;;;;;5064813;27;88585;-54
2022/07/12 14:30:59;;;;;;;1.50;0.90;;;;;;;;;;5064273;27;88244;-54
2022/07/12 14:33:29;;;;;;;2.97;1.30;;;;;;;;;;5064046;27;87575;-54
2022/07/12 14:35:57;;;;;;;0.93;0.80;;;;;;;;;;5062317;27;87067;-54
2022/07/12 14:38:27;;;;;;;1.00;0.90;;;;;;;;;;5061379;27;87118;-54
2022/07/12 14:40:55;;;;;;;1.03;0.73;;;;;;;;;;5063450;27;89215;-54
2022/07/12 14:43:23;;;;;;;0.93;0.80;;;;;;;;;;5064664;27;89854;-54
2022/07/12 14:45:52;;;;;;;1.40;1.00;;;;;;;;;;5063534;27;87039;-54
2022/07/12 14:48:20;;;;;;;1.00;0.90;;;;;;;;;;5062565;27;87064;-54
2022/07/12 14:50:48;;;;;;;0.87;0.87;;;;;;;;;;5063113;27;88056;-53
2022/07/12 14:53:21;;;;;;;1.63;1.20;;;;;;;;;;5063103;27;87492;-54
2022/07/12 14:55:51;;;;;;;1.77;1.33;;;;;;;;;;5062443;27;87037;-54
2022/07/12 14:58:19;;;;;;;1.10;1.00;;;;;;;;;;5062329;27;86358;-54
2022/07/12 15:00:48;;;;;;;3.37;1.37;;;;;;;;;;5060697;27;89084;-54
2022/07/12 15:03:16;;;;;;;1.10;0.93;;;;;;;;;;5061891;27;89721;-54
2022/07/12 15:05:45;;;;;;;1.37;1.20;;;;;;;;;;5062844;27;88999;-54